createdAt,value
2023-12-18T00:02:23.525Z,1.68
2023-12-18T00:04:50.028Z,1.63
2023-12-18T00:07:16.741Z,1.60
2023-12-18T00:09:43.365Z,1.56
2023-12-18T00:12:09.931Z,1.54
2023-12-18T00:14:37.306Z,1.50
2023-12-18T00:17:03.999Z,1.46
2023-12-18T00:19:30.711Z,1.46
2023-12-18T00:21:57.377Z,1.39
2023-12-18T00:24:23.951Z,1.40
2023-12-18T00:26:50.596Z,1.34
2023-12-18T00:29:17.117Z,1.34
2023-12-18T00:31:43.964Z,1.33
2023-12-18T00:34:10.688Z,1.24
2023-12-18T00:36:37.462Z,1.24
2023-12-18T00:39:04.073Z,1.19
2023-12-18T00:41:30.584Z,1.18
2023-12-18T00:43:57.105Z,1.14
2023-12-18T00:46:23.662Z,1.10
2023-12-18T00:48:50.311Z,1.01
2023-12-18T00:51:16.927Z,1.03
2023-12-18T00:53:43.634Z,1.07
2023-12-18T00:56:10.294Z,1.03
2023-12-18T00:58:36.876Z,1.09
2023-12-18T01:01:03.546Z,1.07
2023-12-18T01:03:30.364Z,1.13
2023-12-18T01:05:57.001Z,1.11
2023-12-18T01:08:23.631Z,1.13
2023-12-18T01:10:50.165Z,1.09
2023-12-18T01:13:16.713Z,1.07
2023-12-18T01:15:43.288Z,1.01
2023-12-18T01:18:10.301Z,1.06
2023-12-18T01:20:36.919Z,1.03
2023-12-18T01:23:05.003Z,1.00
2023-12-18T01:25:32.668Z,0.95
2023-12-18T01:28:00.730Z,0.92
2023-12-18T01:30:27.892Z,0.91
2023-12-18T01:32:54.670Z,0.86
2023-12-18T01:35:21.354Z,0.85
2023-12-18T01:37:47.941Z,0.84
2023-12-18T01:40:14.542Z,0.79
2023-12-18T01:42:45.132Z,0.61
2023-12-18T01:45:12.392Z,0.70
2023-12-18T01:47:39.367Z,0.74
2023-12-18T01:50:06.836Z,0.72
2023-12-18T01:52:34.693Z,0.64
2023-12-18T01:55:02.022Z,0.41
2023-12-18T01:57:29.089Z,0.58
2023-12-18T01:59:56.857Z,0.55
2023-12-18T02:02:23.487Z,0.53
2023-12-18T02:04:50.327Z,0.50
2023-12-18T02:07:16.902Z,0.51
2023-12-18T02:09:44.063Z,0.49
2023-12-18T02:12:10.797Z,0.44
2023-12-18T02:14:38.280Z,0.45
2023-12-18T02:17:04.859Z,0.49
2023-12-18T02:19:32.567Z,0.53
2023-12-18T02:21:59.228Z,0.48
2023-12-18T02:24:26.070Z,0.55
2023-12-18T02:26:54.227Z,0.52
2023-12-18T02:29:20.796Z,0.49
2023-12-18T02:31:47.290Z,0.44
2023-12-18T02:34:13.951Z,0.40
2023-12-18T02:36:40.681Z,0.30
2023-12-18T02:39:07.480Z,0.36
2023-12-18T02:41:34.028Z,0.33
2023-12-18T02:44:00.669Z,0.28
2023-12-18T02:46:27.192Z,0.27
2023-12-18T02:48:53.793Z,0.25
2023-12-18T02:51:20.395Z,0.18
2023-12-18T02:53:46.977Z,0.16
2023-12-18T02:56:14.574Z,0.14
2023-12-18T02:58:41.819Z,0.09
2023-12-18T03:01:08.420Z,0.02
2023-12-18T03:03:35.184Z,0.07
2023-12-18T03:06:02.138Z,0.08
2023-12-18T03:08:28.882Z,0.07
2023-12-18T03:10:55.466Z,0.07
2023-12-18T03:13:22.176Z,0.01
2023-12-18T03:15:48.872Z,-0.04
2023-12-18T03:18:15.721Z,-0.01
2023-12-18T03:20:42.334Z,-0.04
2023-12-18T03:23:08.945Z,-0.01
2023-12-18T03:25:35.490Z,-0.02
2023-12-18T03:28:02.035Z,-0.09
2023-12-18T03:30:28.658Z,0.02
2023-12-18T03:32:56.754Z,-0.03
2023-12-18T03:35:23.636Z,-0.01
2023-12-18T03:37:50.184Z,0.04
2023-12-18T03:40:16.691Z,0.05
2023-12-18T03:42:43.323Z,0.05
2023-12-18T03:45:10.342Z,-0.01
2023-12-18T03:47:37.076Z,0.05
2023-12-18T03:50:03.932Z,0.08
2023-12-18T03:52:30.485Z,0.09
2023-12-18T03:54:57.091Z,0.07
2023-12-18T03:57:25.388Z,0.05
2023-12-18T03:59:52.034Z,0.08
2023-12-18T04:02:18.543Z,0.05
2023-12-18T04:04:46.206Z,0.10
2023-12-18T04:07:12.857Z,0.07
2023-12-18T04:09:40.130Z,0.02
2023-12-18T04:12:08.118Z,0.08
2023-12-18T04:14:34.739Z,0.02
2023-12-18T04:17:01.277Z,0.07
2023-12-18T04:19:27.966Z,0.06
2023-12-18T04:21:54.741Z,0.05
2023-12-18T04:24:21.354Z,0.00
2023-12-18T04:26:48.176Z,0.03
2023-12-18T04:29:14.747Z,0.01
2023-12-18T04:31:41.346Z,-0.02
2023-12-18T04:34:08.393Z,-0.04
2023-12-18T04:36:41.529Z,0.01
2023-12-18T04:39:08.333Z,-0.04
2023-12-18T04:41:34.969Z,-0.04
2023-12-18T04:44:01.598Z,-0.01
2023-12-18T04:46:28.171Z,-0.03
2023-12-18T04:48:54.842Z,0.01
2023-12-18T04:51:21.639Z,-0.02
2023-12-18T04:53:48.226Z,0.00
2023-12-18T04:56:14.801Z,-0.02
2023-12-18T04:58:41.370Z,-0.01
2023-12-18T05:01:08.063Z,-0.03
2023-12-18T05:03:37.011Z,-0.05
2023-12-18T05:06:05.324Z,-0.06
2023-12-18T05:08:31.904Z,-0.04
2023-12-18T05:10:58.432Z,-0.02
2023-12-18T05:13:24.962Z,-0.03
2023-12-18T05:15:52.741Z,-0.08
2023-12-18T05:18:19.726Z,-0.03
2023-12-18T05:20:46.366Z,-0.05
2023-12-18T05:23:12.941Z,-0.07
2023-12-18T05:25:39.440Z,-0.06
2023-12-18T05:28:06.183Z,-0.06
2023-12-18T05:30:34.848Z,-0.02
2023-12-18T05:33:03.339Z,-0.01
2023-12-18T05:35:30.104Z,-0.02
2023-12-18T05:37:56.617Z,-0.02
2023-12-18T05:40:23.141Z,0.01
2023-12-18T05:42:50.913Z,-0.05
2023-12-18T05:45:17.952Z,-0.07
2023-12-18T05:47:44.548Z,-0.04
2023-12-18T05:50:11.988Z,-0.05
2023-12-18T05:52:38.815Z,-0.08
2023-12-18T05:55:08.377Z,-0.04
2023-12-18T05:57:36.326Z,-0.08
2023-12-18T06:00:03.488Z,-0.05
2023-12-18T06:02:29.954Z,-0.10
2023-12-18T06:04:56.450Z,-0.09
2023-12-18T06:07:22.982Z,-0.10
2023-12-18T06:09:49.602Z,-0.13
2023-12-18T06:12:16.180Z,-0.16
2023-12-18T06:14:43.546Z,-0.16
2023-12-18T06:17:10.903Z,-0.19
2023-12-18T06:19:38.388Z,-0.21
2023-12-18T06:22:05.428Z,-0.24
2023-12-18T06:24:32.002Z,-0.36
2023-12-18T06:26:58.806Z,-0.29
2023-12-18T06:29:28.659Z,-0.34
2023-12-18T06:31:55.328Z,-0.34
2023-12-18T06:34:22.096Z,-0.39
2023-12-18T06:36:48.844Z,-0.33
2023-12-18T06:39:15.461Z,-0.36
2023-12-18T06:41:42.223Z,-0.36
2023-12-18T06:44:08.774Z,-0.40
2023-12-18T06:46:35.450Z,-0.44
2023-12-18T06:49:04.566Z,-0.40
2023-12-18T06:51:31.316Z,-0.42
2023-12-18T06:53:57.852Z,-0.50
2023-12-18T06:56:24.402Z,-0.54
2023-12-18T06:58:50.938Z,-0.47
2023-12-18T07:01:18.170Z,-0.50
2023-12-18T07:03:45.133Z,-0.52
2023-12-18T07:06:11.798Z,-0.54
2023-12-18T07:08:40.629Z,-0.51
2023-12-18T07:11:08.218Z,-0.50
2023-12-18T07:13:34.902Z,-0.48
2023-12-18T07:16:01.510Z,-0.48
2023-12-18T07:18:28.166Z,-0.44
2023-12-18T07:20:54.793Z,-0.39
2023-12-18T07:23:21.340Z,-0.35
2023-12-18T07:25:47.860Z,-0.35
2023-12-18T07:28:14.395Z,-0.24
2023-12-18T07:30:41.274Z,-0.20
2023-12-18T07:33:08.313Z,-0.16
2023-12-18T07:35:35.019Z,-0.06
2023-12-18T07:38:01.716Z,-0.02
2023-12-18T07:40:28.225Z,-0.05
2023-12-18T07:42:54.872Z,0.07
2023-12-18T07:45:21.501Z,0.16
2023-12-18T07:47:48.146Z,0.19
2023-12-18T07:50:14.962Z,0.30
2023-12-18T07:52:41.741Z,0.35
2023-12-18T07:55:09.010Z,0.47
2023-12-18T07:57:35.733Z,0.62
2023-12-18T08:00:03.138Z,0.92
2023-12-18T08:02:29.651Z,1.08
2023-12-18T08:04:56.362Z,1.17
2023-12-18T08:07:22.919Z,1.29
2023-12-18T08:09:49.502Z,1.37
2023-12-18T08:12:16.117Z,1.46
2023-12-18T08:14:45.521Z,1.53
2023-12-18T08:17:13.323Z,1.58
2023-12-18T08:19:39.953Z,1.67
2023-12-18T08:22:06.536Z,1.74
2023-12-18T08:24:33.113Z,1.72
2023-12-18T08:26:59.725Z,1.84
2023-12-18T08:29:26.755Z,1.93
2023-12-18T08:31:53.326Z,1.98
2023-12-18T08:34:19.970Z,2.01
2023-12-18T08:36:46.728Z,2.13
2023-12-18T08:39:13.542Z,2.20
2023-12-18T08:41:42.335Z,2.27
2023-12-18T08:44:09.931Z,2.32
2023-12-18T08:46:36.726Z,2.32
2023-12-18T08:49:03.449Z,2.48
2023-12-18T08:51:30.040Z,2.51
2023-12-18T08:53:56.985Z,2.61
2023-12-18T08:56:25.706Z,2.57
2023-12-18T08:58:55.842Z,2.59
2023-12-18T09:01:22.507Z,2.45
2023-12-18T09:03:49.170Z,2.70
2023-12-18T09:06:15.883Z,2.73
2023-12-18T09:08:42.553Z,2.75
2023-12-18T09:11:10.048Z,2.85
2023-12-18T09:13:38.028Z,2.89
2023-12-18T09:16:07.976Z,2.96
2023-12-18T09:18:35.183Z,3.01
2023-12-18T09:21:02.412Z,3.03
2023-12-18T09:23:29.038Z,3.01
2023-12-18T09:25:55.815Z,3.11
2023-12-18T09:28:22.356Z,3.11
2023-12-18T09:30:49.017Z,3.20
2023-12-18T09:33:15.814Z,3.25
2023-12-18T09:35:42.744Z,3.34
2023-12-18T09:38:09.294Z,3.39
2023-12-18T09:40:35.966Z,3.38
2023-12-18T09:43:05.187Z,3.45
2023-12-18T09:45:32.309Z,3.52
2023-12-18T09:47:59.862Z,3.48
2023-12-18T09:50:26.669Z,3.57
2023-12-18T09:53:08.134Z,3.51
2023-12-18T09:55:35.457Z,3.55
2023-12-18T09:58:02.419Z,3.55
2023-12-18T10:00:29.411Z,3.48
2023-12-18T10:02:57.752Z,3.52
2023-12-18T10:05:24.638Z,3.55
2023-12-18T10:07:55.140Z,3.56
2023-12-18T10:10:22.449Z,3.52
2023-12-18T10:12:49.090Z,3.62
2023-12-18T10:15:15.878Z,3.64
2023-12-18T10:17:43.834Z,3.68
2023-12-18T10:20:12.798Z,3.70
2023-12-18T10:22:43.235Z,3.67
2023-12-18T10:25:10.936Z,3.69
2023-12-18T10:27:39.789Z,3.72
2023-12-18T10:30:08.552Z,3.72
2023-12-18T10:32:39.467Z,3.82
2023-12-18T10:35:07.112Z,3.81
2023-12-18T10:37:34.426Z,3.89
2023-12-18T10:40:07.667Z,3.89
2023-12-18T10:42:39.128Z,3.82
2023-12-18T10:45:11.783Z,3.96
2023-12-18T10:47:38.952Z,3.96
2023-12-18T10:50:06.611Z,4.08
2023-12-18T10:52:34.759Z,4.06
2023-12-18T10:55:06.067Z,4.06
2023-12-18T10:57:38.205Z,4.06
2023-12-18T11:00:09.580Z,4.12
2023-12-18T11:02:37.618Z,4.02
2023-12-18T11:05:05.748Z,4.10
2023-12-18T11:07:32.676Z,4.09
2023-12-18T11:10:03.537Z,3.97
2023-12-18T11:12:31.180Z,3.98
2023-12-18T11:15:14.234Z,4.06
2023-12-18T11:17:43.753Z,3.99
2023-12-18T11:20:26.569Z,3.94
2023-12-18T11:22:57.380Z,3.95
2023-12-18T11:25:34.010Z,3.87
2023-12-18T11:28:05.822Z,3.87
2023-12-18T11:30:39.295Z,3.85
2023-12-18T11:33:07.532Z,3.83
2023-12-18T11:35:35.913Z,3.92
2023-12-18T11:38:09.829Z,3.97
2023-12-18T11:40:43.764Z,3.99
2023-12-18T11:43:33.788Z,3.99
2023-12-18T11:46:10.610Z,3.97
2023-12-18T11:48:43.944Z,4.06
2023-12-18T11:51:12.851Z,4.12
2023-12-18T11:53:39.426Z,4.21
2023-12-18T11:56:10.590Z,4.19
2023-12-18T11:58:39.900Z,4.24
2023-12-18T12:01:07.214Z,4.26
2023-12-18T12:03:35.012Z,4.26
2023-12-18T12:06:03.461Z,4.28
2023-12-18T12:08:30.240Z,4.31
2023-12-18T12:10:58.380Z,4.35
2023-12-18T12:13:27.139Z,4.48
2023-12-18T12:16:01.402Z,4.57
2023-12-18T12:18:33.304Z,4.60
2023-12-18T12:21:00.420Z,4.60
2023-12-18T12:23:28.295Z,4.66
2023-12-18T12:26:03.275Z,4.62
2023-12-18T12:28:33.275Z,4.69
2023-12-18T12:31:00.459Z,4.69
2023-12-18T12:33:43.448Z,4.74
2023-12-18T12:36:11.353Z,4.62
2023-12-18T12:38:40.388Z,4.75
2023-12-18T12:41:07.212Z,4.72
2023-12-18T12:43:34.309Z,4.77
2023-12-18T12:46:01.013Z,4.70
2023-12-18T12:48:27.779Z,4.75
2023-12-18T12:50:54.367Z,4.66
2023-12-18T12:53:21.033Z,4.64
2023-12-18T12:55:47.764Z,4.56
2023-12-18T12:58:14.449Z,4.64
2023-12-18T13:00:41.215Z,4.61
2023-12-18T13:03:08.980Z,4.62
2023-12-18T13:05:37.664Z,4.60
2023-12-18T13:08:05.512Z,4.65
2023-12-18T13:10:32.187Z,4.68
2023-12-18T13:12:59.162Z,4.69
2023-12-18T13:15:27.133Z,4.70
2023-12-18T13:17:56.015Z,4.76
2023-12-18T13:20:28.174Z,4.66
2023-12-18T13:22:56.288Z,4.77
2023-12-18T13:25:23.133Z,4.78
2023-12-18T13:27:49.804Z,4.77
2023-12-18T13:30:16.500Z,4.75
2023-12-18T13:32:43.369Z,4.71
2023-12-18T13:35:10.095Z,4.77
2023-12-18T13:37:37.808Z,4.85
2023-12-18T13:40:05.543Z,4.86
2023-12-18T13:42:32.225Z,4.73
2023-12-18T13:44:58.847Z,4.81
2023-12-18T13:47:27.555Z,4.72
2023-12-18T13:49:54.575Z,4.73
2023-12-18T13:52:22.128Z,4.73
2023-12-18T13:54:49.994Z,4.78
2023-12-18T13:57:17.401Z,4.68
2023-12-18T13:59:44.055Z,4.70
2023-12-18T14:02:10.630Z,4.57
2023-12-18T14:04:37.527Z,4.61
2023-12-18T14:07:04.725Z,4.60
2023-12-18T14:09:31.458Z,4.66
2023-12-18T14:11:58.721Z,4.65
2023-12-18T14:14:25.336Z,4.68
2023-12-18T14:16:51.895Z,4.60
2023-12-18T14:19:18.515Z,4.61
2023-12-18T14:21:45.192Z,4.61
2023-12-18T14:24:11.865Z,4.57
2023-12-18T14:26:38.554Z,4.58
2023-12-18T14:29:05.249Z,4.53
2023-12-18T14:31:32.303Z,4.54
2023-12-18T14:33:59.085Z,4.54
2023-12-18T14:36:25.908Z,4.52
2023-12-18T14:38:55.287Z,4.53
2023-12-18T14:41:21.828Z,4.46
2023-12-18T14:43:48.373Z,4.45
2023-12-18T14:46:17.089Z,4.46
2023-12-18T14:48:44.517Z,4.45
2023-12-18T14:51:11.318Z,4.36
2023-12-18T14:53:38.750Z,4.27
2023-12-18T14:56:06.044Z,4.26
2023-12-18T14:58:32.704Z,4.23
2023-12-18T15:00:59.363Z,4.25
2023-12-18T15:03:26.143Z,4.25
2023-12-18T15:05:52.906Z,4.11
2023-12-18T15:08:19.690Z,4.27
2023-12-18T15:10:46.477Z,4.22
2023-12-18T15:13:14.070Z,4.21
2023-12-18T15:15:41.250Z,4.15
2023-12-18T15:18:08.044Z,4.14
2023-12-18T15:20:34.835Z,4.19
2023-12-18T15:23:01.463Z,4.19
2023-12-18T15:25:28.107Z,4.07
2023-12-18T15:27:55.947Z,3.98
2023-12-18T15:30:24.236Z,3.98
2023-12-18T15:32:51.330Z,4.07
2023-12-18T15:35:18.176Z,4.06
2023-12-18T15:37:44.993Z,4.08
2023-12-18T15:40:12.004Z,4.09
2023-12-18T15:42:40.661Z,4.07
2023-12-18T15:45:08.337Z,3.93
2023-12-18T15:47:35.108Z,3.91
2023-12-18T15:50:02.149Z,3.80
2023-12-18T15:52:29.035Z,3.85
2023-12-18T15:54:55.674Z,3.90
2023-12-18T15:57:25.132Z,3.80
2023-12-18T15:59:51.938Z,3.73
2023-12-18T16:02:19.328Z,3.78
2023-12-18T16:04:45.943Z,3.73
2023-12-18T16:07:12.648Z,3.73
2023-12-18T16:09:39.436Z,3.69
2023-12-18T16:12:06.660Z,3.80
2023-12-18T16:14:34.740Z,3.76
2023-12-18T16:17:01.576Z,3.69
2023-12-18T16:19:28.318Z,3.51
2023-12-18T16:21:55.920Z,3.59
2023-12-18T16:24:22.644Z,3.62
2023-12-18T16:26:49.383Z,3.64
2023-12-18T16:29:16.068Z,3.64
2023-12-18T16:31:42.905Z,3.59
2023-12-18T16:34:10.653Z,3.57
2023-12-18T16:36:37.410Z,3.53
2023-12-18T16:39:04.629Z,3.51
2023-12-18T16:41:32.417Z,3.42
2023-12-18T16:43:59.080Z,3.40
2023-12-18T16:46:32.343Z,3.34
2023-12-18T16:49:04.006Z,3.40
2023-12-18T16:51:31.178Z,3.39
2023-12-18T16:53:57.799Z,3.31
2023-12-18T16:56:24.366Z,3.37
2023-12-18T16:58:51.075Z,3.36
2023-12-18T17:01:17.914Z,3.30
2023-12-18T17:03:44.622Z,3.25
2023-12-18T17:06:11.726Z,3.24
2023-12-18T17:08:38.315Z,3.17
2023-12-18T17:11:06.312Z,3.20
2023-12-18T17:13:32.891Z,3.17
2023-12-18T17:15:59.472Z,3.18
2023-12-18T17:18:26.154Z,3.21
2023-12-18T17:20:52.702Z,3.18
2023-12-18T17:23:19.334Z,3.16
2023-12-18T17:25:46.090Z,3.14
2023-12-18T17:28:12.710Z,3.21
2023-12-18T17:30:39.310Z,3.29
2023-12-18T17:33:06.502Z,3.36
2023-12-18T17:35:33.434Z,3.37
2023-12-18T17:37:59.984Z,3.34
2023-12-18T17:40:26.651Z,3.40
2023-12-18T17:42:53.321Z,3.43
2023-12-18T17:45:20.541Z,3.49
2023-12-18T17:47:47.792Z,3.50
2023-12-18T17:50:14.736Z,3.53
2023-12-18T17:52:41.371Z,3.45
2023-12-18T17:55:08.580Z,3.55
2023-12-18T17:57:35.165Z,3.61
2023-12-18T18:00:02.203Z,3.60
2023-12-18T18:02:28.772Z,3.51
2023-12-18T18:04:55.802Z,3.47
2023-12-18T18:07:22.413Z,3.38
2023-12-18T18:09:49.020Z,3.39
2023-12-18T18:12:16.578Z,3.37
2023-12-18T18:14:43.571Z,3.31
2023-12-18T18:17:10.127Z,3.30
2023-12-18T18:19:36.743Z,3.36
2023-12-18T18:22:04.628Z,3.39
2023-12-18T18:24:31.471Z,3.37
2023-12-18T18:27:08.664Z,3.38
2023-12-18T18:29:37.551Z,3.39
2023-12-18T18:32:04.756Z,3.37
2023-12-18T18:34:31.879Z,3.37
2023-12-18T18:36:58.768Z,3.25
2023-12-18T18:39:26.698Z,3.27
2023-12-18T18:41:54.018Z,3.32
2023-12-18T18:44:20.821Z,3.21
2023-12-18T18:46:51.350Z,3.28
2023-12-18T18:49:18.018Z,3.23
2023-12-18T18:51:44.714Z,3.28
2023-12-18T18:54:12.031Z,3.26
2023-12-18T18:56:38.604Z,3.29
2023-12-18T18:59:05.269Z,3.31
2023-12-18T19:01:33.091Z,3.30
2023-12-18T19:04:00.070Z,3.30
2023-12-18T19:06:26.807Z,3.31
2023-12-18T19:08:53.411Z,3.34
2023-12-18T19:11:20.060Z,3.35
2023-12-18T19:13:46.586Z,3.30
2023-12-18T19:16:14.100Z,3.36
2023-12-18T19:18:40.824Z,3.30
2023-12-18T19:21:07.681Z,3.30
2023-12-18T19:23:36.198Z,3.38
2023-12-18T19:26:03.208Z,3.36
2023-12-18T19:28:29.892Z,3.37
2023-12-18T19:30:56.746Z,3.40
2023-12-18T19:33:23.576Z,3.38
2023-12-18T19:35:51.619Z,3.37
2023-12-18T19:38:21.989Z,3.20
2023-12-18T19:40:48.586Z,3.42
2023-12-18T19:43:15.263Z,3.41
2023-12-18T19:45:42.130Z,3.44
2023-12-18T19:48:08.770Z,3.29
2023-12-18T19:50:38.313Z,3.47
2023-12-18T19:53:05.734Z,3.48
2023-12-18T19:55:32.559Z,3.43
2023-12-18T19:57:59.997Z,3.42
2023-12-18T20:00:27.339Z,3.44
2023-12-18T20:02:54.009Z,3.47
2023-12-18T20:05:20.608Z,3.51
2023-12-18T20:07:47.211Z,3.55
2023-12-18T20:10:13.810Z,3.53
2023-12-18T20:12:40.443Z,3.15
2023-12-18T20:15:07.838Z,3.56
2023-12-18T20:17:35.262Z,3.61
2023-12-18T20:20:02.228Z,3.59
2023-12-18T20:22:29.869Z,3.58
2023-12-18T20:24:56.675Z,3.58
2023-12-18T20:27:23.416Z,3.54
2023-12-18T20:29:50.186Z,3.61
2023-12-18T20:32:16.808Z,3.59
2023-12-18T20:34:43.512Z,3.59
2023-12-18T20:37:10.722Z,3.59
2023-12-18T20:39:37.543Z,3.58
2023-12-18T20:42:04.307Z,3.51
2023-12-18T20:44:30.860Z,3.54
2023-12-18T20:46:58.698Z,3.55
2023-12-18T20:49:27.590Z,3.53
2023-12-18T20:51:56.256Z,3.53
2023-12-18T20:54:23.079Z,3.48
2023-12-18T20:56:49.654Z,3.54
2023-12-18T20:59:16.146Z,3.53
2023-12-18T21:01:44.542Z,3.53
2023-12-18T21:04:11.238Z,3.53
2023-12-18T21:06:38.576Z,3.51
2023-12-18T21:09:05.301Z,3.50
2023-12-18T21:11:31.855Z,3.52
2023-12-18T21:13:58.576Z,3.57
2023-12-18T21:16:25.114Z,3.59
2023-12-18T21:18:51.879Z,3.59
2023-12-18T21:21:20.719Z,3.61
2023-12-18T21:23:47.450Z,3.63
2023-12-18T21:26:16.106Z,3.61
2023-12-18T21:28:43.641Z,3.57
2023-12-18T21:31:11.532Z,3.59
2023-12-18T21:33:38.582Z,3.39
2023-12-18T21:36:06.187Z,3.63
2023-12-18T21:38:32.823Z,3.47
2023-12-18T21:41:01.642Z,3.62
2023-12-18T21:43:29.988Z,3.62
2023-12-18T21:45:57.911Z,3.62
2023-12-18T21:48:24.868Z,3.64
2023-12-18T21:50:51.710Z,3.63
2023-12-18T21:53:19.952Z,3.65
2023-12-18T21:55:47.276Z,3.62
2023-12-18T21:58:14.262Z,3.61
2023-12-18T22:00:41.114Z,3.62
2023-12-18T22:03:07.993Z,3.57
2023-12-18T22:05:35.026Z,3.62
2023-12-18T22:08:01.738Z,3.63
2023-12-18T22:10:28.724Z,3.63
2023-12-18T22:12:55.589Z,3.63
2023-12-18T22:15:22.360Z,3.64
2023-12-18T22:17:50.156Z,3.67
2023-12-18T22:20:16.973Z,3.43
2023-12-18T22:22:43.953Z,3.70
2023-12-18T22:25:10.748Z,3.73
2023-12-18T22:27:37.480Z,3.73
2023-12-18T22:30:05.045Z,3.78
2023-12-18T22:32:32.084Z,3.65
2023-12-18T22:34:59.106Z,3.84
2023-12-18T22:37:25.903Z,3.89
2023-12-18T22:39:52.462Z,3.89
2023-12-18T22:42:19.075Z,3.92
2023-12-18T22:44:45.682Z,3.91
2023-12-18T22:47:13.230Z,3.97
2023-12-18T22:49:41.214Z,3.99
2023-12-18T22:52:07.832Z,3.68
2023-12-18T22:54:34.431Z,3.99
2023-12-18T22:57:00.985Z,3.97
2023-12-18T22:59:27.679Z,4.01
2023-12-18T23:01:54.691Z,4.03
2023-12-18T23:04:21.742Z,4.03
2023-12-18T23:06:50.702Z,4.08
2023-12-18T23:09:17.595Z,4.08
2023-12-18T23:11:44.191Z,4.10
2023-12-18T23:14:10.828Z,4.10
2023-12-18T23:16:37.875Z,4.11
2023-12-18T23:19:04.545Z,4.09
2023-12-18T23:21:32.378Z,4.10
2023-12-18T23:24:01.262Z,4.09
2023-12-18T23:26:27.882Z,4.06
2023-12-18T23:28:54.746Z,4.03
2023-12-18T23:31:21.377Z,4.05
2023-12-18T23:33:48.610Z,4.05
2023-12-18T23:36:15.373Z,4.05
2023-12-18T23:38:42.363Z,4.07
2023-12-18T23:41:08.875Z,4.07
2023-12-18T23:43:35.428Z,4.07
2023-12-18T23:46:02.327Z,4.08
2023-12-18T23:48:29.047Z,3.99
2023-12-18T23:50:55.579Z,4.10
2023-12-18T23:53:22.437Z,3.87
2023-12-18T23:55:49.733Z,4.09
2023-12-18T23:58:17.905Z,4.10
